Terminal Aerodrome Forecast
Issued by NWS Cleveland, OH

Home | Current Version | Previous Version | Text Only | Print | Product List | Glossary Off
Versions: 1 2 3 4 5 6 7 8 9 10 11 12 13 14 15 16 17 18 19 20 21 22

000
FTUS41 KCLE 271200 AAA
TAFCAK
TAF AMD
KCAK 271240Z 2713/2812 VRB03KT 3SM BR SCT007 BKN015
     FM271500 22006KT P6SM VCSH SCT015 BKN035
     FM272100 26008KT P6SM VCTS BKN035CB OVC100
      TEMPO 2722/2802 2SM TSRA BR OVC015CB
     FM280500 26006KT 6SM BR VCSH OVC035=

USA.gov is the U.S. government's official web portal to all federal, state and local government web resources and services.